sensor_id;sensor_type;location;lat;lon;timestamp;P1;P2;P0
69746;PMS7003;57018;50.278;19.134;2023-08-12T00:00:11;33.50;30.00;19.50
69746;PMS7003;57018;50.278;19.134;2023-08-12T00:02:43;32.00;31.00;23.00
69746;PMS7003;57018;50.278;19.134;2023-08-12T00:05:14;30.50;27.50;21.50
69746;PMS7003;57018;50.278;19.134;2023-08-12T00:07:44;29.00;27.50;20.00
69746;PMS7003;57018;50.278;19.134;2023-08-12T00:10:14;29.00;28.00;21.00
69746;PMS7003;57018;50.278;19.134;2023-08-12T00:12:44;32.33;30.33;20.00
69746;PMS7003;57018;50.278;19.134;2023-08-12T00:15:13;31.00;27.00;20.50
69746;PMS7003;57018;50.278;19.134;2023-08-12T00:17:43;24.00;24.00;17.00
69746;PMS7003;57018;50.278;19.134;2023-08-12T00:20:13;27.00;24.00;19.00
69746;PMS7003;57018;50.278;19.134;2023-08-12T00:22:44;31.00;30.50;22.50
69746;PMS7003;57018;50.278;19.134;2023-08-12T00:25:14;32.25;30.50;23.50
69746;PMS7003;57018;50.278;19.134;2023-08-12T00:27:44;42.67;37.33;25.00
69746;PMS7003;57018;50.278;19.134;2023-08-12T00:30:14;36.50;34.00;24.00
69746;PMS7003;57018;50.278;19.134;2023-08-12T00:32:45;38.50;33.50;23.00
69746;PMS7003;57018;50.278;19.134;2023-08-12T00:35:14;34.50;31.50;23.00
69746;PMS7003;57018;50.278;19.134;2023-08-12T00:37:44;31.50;28.50;20.00
69746;PMS7003;57018;50.278;19.134;2023-08-12T00:40:14;30.50;28.50;20.00
69746;PMS7003;57018;50.278;19.134;2023-08-12T00:42:44;27.33;26.00;18.67
69746;PMS7003;57018;50.278;19.134;2023-08-12T00:45:14;32.00;29.50;22.00
69746;PMS7003;57018;50.278;19.134;2023-08-12T00:47:44;37.00;33.00;23.00
69746;PMS7003;57018;50.278;19.134;2023-08-12T00:50:14;45.50;37.50;25.50
69746;PMS7003;57018;50.278;19.134;2023-08-12T00:52:44;37.00;33.00;23.00
69746;PMS7003;57018;50.278;19.134;2023-08-12T00:55:14;39.00;34.00;24.00
69746;PMS7003;57018;50.278;19.134;2023-08-12T00:57:44;33.00;31.00;22.00
69746;PMS7003;57018;50.278;19.134;2023-08-12T01:02:48;33.00;31.00;23.00
69746;PMS7003;57018;50.278;19.134;2023-08-12T01:05:19;41.50;37.00;25.00
69746;PMS7003;57018;50.278;19.134;2023-08-12T01:07:49;37.33;34.00;24.00
69746;PMS7003;57018;50.278;19.134;2023-08-12T01:10:20;32.00;31.50;23.00
69746;PMS7003;57018;50.278;19.134;2023-08-12T01:12:52;34.00;31.00;23.00
69746;PMS7003;57018;50.278;19.134;2023-08-12T01:15:27;36.50;33.00;23.00
69746;PMS7003;57018;50.278;19.134;2023-08-12T01:17:57;38.00;33.50;23.50
69746;PMS7003;57018;50.278;19.134;2023-08-12T01:20:30;40.00;34.00;23.00
69746;PMS7003;57018;50.278;19.134;2023-08-12T01:23:07;34.25;32.75;23.00
69746;PMS7003;57018;50.278;19.134;2023-08-12T01:25:40;32.00;31.00;23.00
69746;PMS7003;57018;50.278;19.134;2023-08-12T01:28:10;40.50;33.50;22.50
69746;PMS7003;57018;50.278;19.134;2023-08-12T01:30:43;44.50;38.50;27.00
69746;PMS7003;57018;50.278;19.134;2023-08-12T01:33:23;44.00;37.00;24.50
69746;PMS7003;57018;50.278;19.134;2023-08-12T01:36:03;39.50;35.00;25.00
69746;PMS7003;57018;50.278;19.134;2023-08-12T01:38:37;42.00;34.00;23.00
69746;PMS7003;57018;50.278;19.134;2023-08-12T01:41:09;40.50;35.50;24.50
69746;PMS7003;57018;50.278;19.134;2023-08-12T01:43:40;40.50;35.00;23.50
69746;PMS7003;57018;50.278;19.134;2023-08-12T01:46:11;40.00;36.00;23.33
69746;PMS7003;57018;50.278;19.134;2023-08-12T01:48:41;42.00;37.00;25.00
69746;PMS7003;57018;50.278;19.134;2023-08-12T01:51:11;38.00;33.00;24.00
69746;PMS7003;57018;50.278;19.134;2023-08-12T01:53:40;41.00;37.00;24.00
69746;PMS7003;57018;50.278;19.134;2023-08-12T01:56:11;43.67;38.00;25.00
69746;PMS7003;57018;50.278;19.134;2023-08-12T01:58:41;42.00;37.00;25.00
69746;PMS7003;57018;50.278;19.134;2023-08-12T02:01:10;35.67;32.33;24.00
69746;PMS7003;57018;50.278;19.134;2023-08-12T02:03:40;32.00;31.50;24.00
69746;PMS7003;57018;50.278;19.134;2023-08-12T02:06:10;38.33;35.00;23.00
69746;PMS7003;57018;50.278;19.134;2023-08-12T02:11:08;37.00;34.00;23.00
69746;PMS7003;57018;50.278;19.134;2023-08-12T02:13:38;40.00;32.50;23.00
69746;PMS7003;57018;50.278;19.134;2023-08-12T02:16:08;39.00;35.00;24.00
69746;PMS7003;57018;50.278;19.134;2023-08-12T02:18:37;38.67;35.00;23.33
69746;PMS7003;57018;50.278;19.134;2023-08-12T02:21:07;41.50;34.50;24.00
69746;PMS7003;57018;50.278;19.134;2023-08-12T02:23:37;37.00;32.00;23.50
69746;PMS7003;57018;50.278;19.134;2023-08-12T02:26:07;39.00;33.50;23.50
69746;PMS7003;57018;50.278;19.134;2023-08-12T02:28:37;36.00;32.00;23.50
69746;PMS7003;57018;50.278;19.134;2023-08-12T02:31:07;41.00;34.50;24.00
69746;PMS7003;57018;50.278;19.134;2023-08-12T02:33:36;41.00;36.67;25.00
69746;PMS7003;57018;50.278;19.134;2023-08-12T02:36:06;43.00;36.50;25.00
69746;PMS7003;57018;50.278;19.134;2023-08-12T02:38:36;36.50;34.50;24.00
69746;PMS7003;57018;50.278;19.134;2023-08-12T02:41:06;33.00;31.50;21.00
69746;PMS7003;57018;50.278;19.134;2023-08-12T02:43:36;33.50;31.50;23.50
69746;PMS7003;57018;50.278;19.134;2023-08-12T02:46:06;40.50;37.00;24.00
69746;PMS7003;57018;50.278;19.134;2023-08-12T02:48:36;34.00;32.00;21.00
69746;PMS7003;57018;50.278;19.134;2023-08-12T02:51:06;35.50;32.00;22.50
69746;PMS7003;57018;50.278;19.134;2023-08-12T02:53:36;33.50;32.50;22.00
69746;PMS7003;57018;50.278;19.134;2023-08-12T02:56:06;36.00;32.67;23.33
69746;PMS7003;57018;50.278;19.134;2023-08-12T02:58:36;30.50;30.50;21.00
69746;PMS7003;57018;50.278;19.134;2023-08-12T03:01:07;31.50;30.00;19.50
69746;PMS7003;57018;50.278;19.134;2023-08-12T03:03:36;34.00;31.50;21.50
69746;PMS7003;57018;50.278;19.134;2023-08-12T03:06:06;38.50;34.00;22.50
69746;PMS7003;57018;50.278;19.134;2023-08-12T03:08:36;34.00;32.00;23.00
69746;PMS7003;57018;50.278;19.134;2023-08-12T03:11:06;31.00;31.00;21.00
69746;PMS7003;57018;50.278;19.134;2023-08-12T03:13:36;32.00;30.00;21.00
69746;PMS7003;57018;50.278;19.134;2023-08-12T03:16:07;38.67;35.67;24.00
69746;PMS7003;57018;50.278;19.134;2023-08-12T03:18:41;37.50;33.50;21.50
69746;PMS7003;57018;50.278;19.134;2023-08-12T03:21:11;44.50;38.00;24.00
69746;PMS7003;57018;50.278;19.134;2023-08-12T03:26:09;45.00;38.00;25.00
69746;PMS7003;57018;50.278;19.134;2023-08-12T03:28:39;48.00;39.00;25.00
69746;PMS7003;57018;50.278;19.134;2023-08-12T03:31:08;41.25;37.25;25.25
69746;PMS7003;57018;50.278;19.134;2023-08-12T03:33:38;44.50;36.50;25.00
69746;PMS7003;57018;50.278;19.134;2023-08-12T03:36:08;43.00;36.50;25.00
69746;PMS7003;57018;50.278;19.134;2023-08-12T03:38:38;40.00;35.00;24.00
69746;PMS7003;57018;50.278;19.134;2023-08-12T03:41:08;44.00;35.00;22.67
69746;PMS7003;57018;50.278;19.134;2023-08-12T03:43:38;41.50;36.50;23.00
69746;PMS7003;57018;50.278;19.134;2023-08-12T03:46:08;46.50;37.00;25.00
69746;PMS7003;57018;50.278;19.134;2023-08-12T03:48:38;40.00;36.00;24.00
69746;PMS7003;57018;50.278;19.134;2023-08-12T03:51:08;34.50;30.50;20.00
69746;PMS7003;57018;50.278;19.134;2023-08-12T03:53:38;35.00;33.00;23.00
69746;PMS7003;57018;50.278;19.134;2023-08-12T03:58:36;36.00;33.50;23.00
69746;PMS7003;57018;50.278;19.134;2023-08-12T04:01:06;39.00;34.50;23.50
69746;PMS7003;57018;50.278;19.134;2023-08-12T04:03:36;37.50;34.50;24.50
69746;PMS7003;57018;50.278;19.134;2023-08-12T04:06:05;41.67;36.33;24.67
69746;PMS7003;57018;50.278;19.134;2023-08-12T04:08:35;44.00;36.00;27.00
69746;PMS7003;57018;50.278;19.134;2023-08-12T04:11:05;44.00;36.50;25.50
69746;PMS7003;57018;50.278;19.134;2023-08-12T04:13:35;44.67;36.33;24.33
69746;PMS7003;57018;50.278;19.134;2023-08-12T04:16:05;54.00;45.00;30.00
69746;PMS7003;57018;50.278;19.134;2023-08-12T04:18:34;52.00;42.00;29.00
69746;PMS7003;57018;50.278;19.134;2023-08-12T04:21:04;49.50;41.00;27.00
69746;PMS7003;57018;50.278;19.134;2023-08-12T04:23:34;49.50;42.00;28.50
69746;PMS7003;57018;50.278;19.134;2023-08-12T04:26:04;53.00;44.00;29.00
69746;PMS7003;57018;50.278;19.134;2023-08-12T04:28:34;50.00;41.00;28.00
69746;PMS7003;57018;50.278;19.134;2023-08-12T04:31:05;49.00;41.00;28.00
69746;PMS7003;57018;50.278;19.134;2023-08-12T04:33:35;47.00;40.00;27.00
69746;PMS7003;57018;50.278;19.134;2023-08-12T04:36:06;53.50;46.50;31.50
69746;PMS7003;57018;50.278;19.134;2023-08-12T04:38:36;46.00;39.50;28.00
69746;PMS7003;57018;50.278;19.134;2023-08-12T04:41:06;46.00;39.50;26.50
69746;PMS7003;57018;50.278;19.134;2023-08-12T04:43:36;46.00;41.00;29.00
69746;PMS7003;57018;50.278;19.134;2023-08-12T04:46:05;52.50;43.00;30.00
69746;PMS7003;57018;50.278;19.134;2023-08-12T04:48:36;46.33;40.00;29.67
69746;PMS7003;57018;50.278;19.134;2023-08-12T04:51:06;51.25;37.75;27.25
69746;PMS7003;57018;50.278;19.134;2023-08-12T04:53:36;41.33;37.00;26.00
69746;PMS7003;57018;50.278;19.134;2023-08-12T04:56:06;40.00;37.00;25.00
69746;PMS7003;57018;50.278;19.134;2023-08-12T04:58:36;47.00;37.50;26.00
69746;PMS7003;57018;50.278;19.134;2023-08-12T05:01:07;28.50;28.50;20.00
69746;PMS7003;57018;50.278;19.134;2023-08-12T05:03:37;38.00;35.00;24.00
69746;PMS7003;57018;50.278;19.134;2023-08-12T05:06:07;36.00;31.00;21.00
69746;PMS7003;57018;50.278;19.134;2023-08-12T05:08:37;38.00;34.00;24.00
69746;PMS7003;57018;50.278;19.134;2023-08-12T05:11:07;40.50;34.00;22.50
69746;PMS7003;57018;50.278;19.134;2023-08-12T05:13:37;33.67;32.00;22.67
69746;PMS7003;57018;50.278;19.134;2023-08-12T05:16:08;40.00;35.00;23.00
69746;PMS7003;57018;50.278;19.134;2023-08-12T05:18:37;47.00;40.00;28.00
69746;PMS7003;57018;50.278;19.134;2023-08-12T05:21:07;39.50;33.50;21.00
69746;PMS7003;57018;50.278;19.134;2023-08-12T05:23:37;39.00;35.00;24.00
69746;PMS7003;57018;50.278;19.134;2023-08-12T05:26:07;39.00;34.00;23.00
69746;PMS7003;57018;50.278;19.134;2023-08-12T05:28:38;42.00;37.00;25.00
69746;PMS7003;57018;50.278;19.134;2023-08-12T05:31:08;43.00;37.00;26.00
69746;PMS7003;57018;50.278;19.134;2023-08-12T05:33:38;43.00;37.00;24.00
69746;PMS7003;57018;50.278;19.134;2023-08-12T05:36:08;39.00;34.00;23.00
69746;PMS7003;57018;50.278;19.134;2023-08-12T05:38:38;37.50;33.50;24.00
69746;PMS7003;57018;50.278;19.134;2023-08-12T05:41:10;37.50;34.50;23.00
69746;PMS7003;57018;50.278;19.134;2023-08-12T05:43:40;33.00;32.00;23.00
69746;PMS7003;57018;50.278;19.134;2023-08-12T05:46:10;39.00;35.50;23.00
69746;PMS7003;57018;50.278;19.134;2023-08-12T05:48:47;42.00;37.00;25.00
69746;PMS7003;57018;50.278;19.134;2023-08-12T05:51:17;42.50;36.00;25.50
69746;PMS7003;57018;50.278;19.134;2023-08-12T05:53:47;36.50;34.00;23.00
69746;PMS7003;57018;50.278;19.134;2023-08-12T05:56:17;45.00;38.00;26.00
69746;PMS7003;57018;50.278;19.134;2023-08-12T05:58:47;43.00;37.50;24.50
69746;PMS7003;57018;50.278;19.134;2023-08-12T06:01:17;43.00;37.00;25.00
69746;PMS7003;57018;50.278;19.134;2023-08-12T06:03:47;37.50;36.00;27.50
69746;PMS7003;57018;50.278;19.134;2023-08-12T06:06:17;43.50;35.50;24.00
69746;PMS7003;57018;50.278;19.134;2023-08-12T06:08:51;41.00;37.00;26.00
69746;PMS7003;57018;50.278;19.134;2023-08-12T06:11:21;41.00;36.50;24.50
69746;PMS7003;57018;50.278;19.134;2023-08-12T06:13:51;37.00;34.00;22.00
69746;PMS7003;57018;50.278;19.134;2023-08-12T06:16:21;38.00;35.00;24.00
69746;PMS7003;57018;50.278;19.134;2023-08-12T06:18:51;39.00;34.00;22.00
69746;PMS7003;57018;50.278;19.134;2023-08-12T06:21:20;41.00;37.00;26.00
69746;PMS7003;57018;50.278;19.134;2023-08-12T06:23:50;37.00;34.00;23.00
69746;PMS7003;57018;50.278;19.134;2023-08-12T06:26:20;46.00;38.00;24.00
69746;PMS7003;57018;50.278;19.134;2023-08-12T06:28:50;44.00;37.50;23.50
69746;PMS7003;57018;50.278;19.134;2023-08-12T06:31:20;44.00;37.00;24.00
69746;PMS7003;57018;50.278;19.134;2023-08-12T06:33:50;44.00;38.50;24.50
69746;PMS7003;57018;50.278;19.134;2023-08-12T06:36:20;39.25;34.75;24.75
69746;PMS7003;57018;50.278;19.134;2023-08-12T06:38:49;39.00;34.00;23.00
69746;PMS7003;57018;50.278;19.134;2023-08-12T06:41:19;39.00;35.50;24.50
69746;PMS7003;57018;50.278;19.134;2023-08-12T06:43:49;40.00;37.00;26.00
69746;PMS7003;57018;50.278;19.134;2023-08-12T06:46:19;36.00;32.00;23.00
69746;PMS7003;57018;50.278;19.134;2023-08-12T06:48:49;38.00;34.00;22.00
69746;PMS7003;57018;50.278;19.134;2023-08-12T06:51:25;38.50;35.50;24.50
69746;PMS7003;57018;50.278;19.134;2023-08-12T06:53:54;35.00;33.00;23.00
69746;PMS7003;57018;50.278;19.134;2023-08-12T06:56:24;40.00;35.00;24.00
69746;PMS7003;57018;50.278;19.134;2023-08-12T06:58:54;37.00;34.00;23.00
69746;PMS7003;57018;50.278;19.134;2023-08-12T07:01:24;36.00;31.00;23.00
69746;PMS7003;57018;50.278;19.134;2023-08-12T07:03:58;37.00;34.00;23.00
69746;PMS7003;57018;50.278;19.134;2023-08-12T07:06:28;36.00;32.00;23.00
69746;PMS7003;57018;50.278;19.134;2023-08-12T07:09:06;37.00;36.00;26.00
69746;PMS7003;57018;50.278;19.134;2023-08-12T07:11:40;34.00;30.50;22.00
69746;PMS7003;57018;50.278;19.134;2023-08-12T07:14:10;32.00;29.50;22.00
69746;PMS7003;57018;50.278;19.134;2023-08-12T07:16:40;32.00;30.00;20.50
69746;PMS7003;57018;50.278;19.134;2023-08-12T07:19:11;41.50;34.00;24.00
69746;PMS7003;57018;50.278;19.134;2023-08-12T07:21:41;28.67;27.33;21.00
69746;PMS7003;57018;50.278;19.134;2023-08-12T07:24:11;31.00;29.00;21.00
69746;PMS7003;57018;50.278;19.134;2023-08-12T07:26:41;35.00;29.00;22.00
69746;PMS7003;57018;50.278;19.134;2023-08-12T07:29:11;27.00;25.00;18.00
69746;PMS7003;57018;50.278;19.134;2023-08-12T07:31:41;33.00;29.00;21.00
69746;PMS7003;57018;50.278;19.134;2023-08-12T07:34:11;28.00;27.00;18.00
69746;PMS7003;57018;50.278;19.134;2023-08-12T07:36:41;26.00;26.00;20.00
69746;PMS7003;57018;50.278;19.134;2023-08-12T07:39:12;29.00;25.00;20.00
69746;PMS7003;57018;50.278;19.134;2023-08-12T07:41:42;31.00;29.00;19.50
69746;PMS7003;57018;50.278;19.134;2023-08-12T07:44:15;28.00;24.00;19.00
69746;PMS7003;57018;50.278;19.134;2023-08-12T07:46:45;25.00;24.00;18.00
69746;PMS7003;57018;50.278;19.134;2023-08-12T07:49:15;24.00;24.00;19.00
69746;PMS7003;57018;50.278;19.134;2023-08-12T07:51:45;26.00;23.00;19.00
69746;PMS7003;57018;50.278;19.134;2023-08-12T07:54:15;32.00;31.00;22.50
69746;PMS7003;57018;50.278;19.134;2023-08-12T07:56:45;23.50;22.50;18.00
69746;PMS7003;57018;50.278;19.134;2023-08-12T07:59:14;19.33;19.33;13.00
69746;PMS7003;57018;50.278;19.134;2023-08-12T08:01:44;23.00;21.00;17.00
69746;PMS7003;57018;50.278;19.134;2023-08-12T08:04:14;30.00;29.00;18.00
69746;PMS7003;57018;50.278;19.134;2023-08-12T08:06:44;22.00;20.00;16.00
69746;PMS7003;57018;50.278;19.134;2023-08-12T08:09:14;21.67;20.00;14.00
69746;PMS7003;57018;50.278;19.134;2023-08-12T08:11:44;30.00;27.00;18.00
69746;PMS7003;57018;50.278;19.134;2023-08-12T08:14:13;21.00;21.00;17.00
69746;PMS7003;57018;50.278;19.134;2023-08-12T08:16:43;26.50;22.00;15.50
69746;PMS7003;57018;50.278;19.134;2023-08-12T08:19:13;21.67;21.67;14.00
69746;PMS7003;57018;50.278;19.134;2023-08-12T08:21:43;22.00;20.50;15.00
69746;PMS7003;57018;50.278;19.134;2023-08-12T08:24:13;19.00;18.00;13.00
69746;PMS7003;57018;50.278;19.134;2023-08-12T08:26:42;19.00;18.33;14.67
69746;PMS7003;57018;50.278;19.134;2023-08-12T08:29:13;21.00;21.00;12.00
69746;PMS7003;57018;50.278;19.134;2023-08-12T08:31:43;21.00;20.50;14.50
69746;PMS7003;57018;50.278;19.134;2023-08-12T08:34:16;18.00;17.00;12.00
69746;PMS7003;57018;50.278;19.134;2023-08-12T08:36:46;24.50;21.50;15.00
69746;PMS7003;57018;50.278;19.134;2023-08-12T08:39:16;16.00;15.00;11.00
69746;PMS7003;57018;50.278;19.134;2023-08-12T08:41:45;15.50;15.50;13.00
69746;PMS7003;57018;50.278;19.134;2023-08-12T08:44:17;16.00;15.33;10.33
69746;PMS7003;57018;50.278;19.134;2023-08-12T08:46:51;14.00;14.00;10.00
69746;PMS7003;57018;50.278;19.134;2023-08-12T08:49:22;14.00;14.00;11.00
69746;PMS7003;57018;50.278;19.134;2023-08-12T08:51:53;14.00;13.00;10.00
69746;PMS7003;57018;50.278;19.134;2023-08-12T08:54:24;12.00;12.00;9.00
69746;PMS7003;57018;50.278;19.134;2023-08-12T08:56:55;15.00;15.00;10.50
69746;PMS7003;57018;50.278;19.134;2023-08-12T08:59:24;10.00;10.00;7.67
69746;PMS7003;57018;50.278;19.134;2023-08-12T09:01:54;15.50;14.50;12.50
69746;PMS7003;57018;50.278;19.134;2023-08-12T09:04:25;27.00;22.00;16.00
69746;PMS7003;57018;50.278;19.134;2023-08-12T09:06:56;15.00;15.00;11.00
69746;PMS7003;57018;50.278;19.134;2023-08-12T09:09:28;12.00;10.00;9.00
69746;PMS7003;57018;50.278;19.134;2023-08-12T09:11:59;12.00;12.00;9.50
69746;PMS7003;57018;50.278;19.134;2023-08-12T09:14:29;11.50;11.50;9.50
69746;PMS7003;57018;50.278;19.134;2023-08-12T09:17:00;11.00;11.00;8.00
69746;PMS7003;57018;50.278;19.134;2023-08-12T09:19:30;11.33;11.00;9.33
69746;PMS7003;57018;50.278;19.134;2023-08-12T09:22:00;10.00;10.00;8.00
69746;PMS7003;57018;50.278;19.134;2023-08-12T09:24:33;8.00;8.00;5.00
69746;PMS7003;57018;50.278;19.134;2023-08-12T09:27:03;13.50;13.50;11.00
69746;PMS7003;57018;50.278;19.134;2023-08-12T09:29:34;12.00;11.75;9.00
69746;PMS7003;57018;50.278;19.134;2023-08-12T09:32:08;10.00;10.00;8.00
69746;PMS7003;57018;50.278;19.134;2023-08-12T09:39:42;14.00;14.00;12.00
69746;PMS7003;57018;50.278;19.134;2023-08-12T09:42:12;11.50;11.50;9.50
69746;PMS7003;57018;50.278;19.134;2023-08-12T09:44:43;15.50;12.00;9.00
69746;PMS7003;57018;50.278;19.134;2023-08-12T09:47:13;11.67;9.67;8.67
69746;PMS7003;57018;50.278;19.134;2023-08-12T09:49:42;9.00;8.00;7.00
69746;PMS7003;57018;50.278;19.134;2023-08-12T09:52:12;13.00;12.00;10.00
69746;PMS7003;57018;50.278;19.134;2023-08-12T09:54:43;11.33;11.33;9.00
69746;PMS7003;57018;50.278;19.134;2023-08-12T09:57:14;18.00;16.00;12.00
69746;PMS7003;57018;50.278;19.134;2023-08-12T09:59:46;26.00;24.00;14.50
69746;PMS7003;57018;50.278;19.134;2023-08-12T10:02:17;13.33;13.00;10.33
69746;PMS7003;57018;50.278;19.134;2023-08-12T10:04:48;13.50;13.50;10.00
69746;PMS7003;57018;50.278;19.134;2023-08-12T10:07:23;9.50;9.50;7.50
69746;PMS7003;57018;50.278;19.134;2023-08-12T10:09:53;11.00;11.00;8.00
69746;PMS7003;57018;50.278;19.134;2023-08-12T10:12:24;12.00;12.00;9.00
69746;PMS7003;57018;50.278;19.134;2023-08-12T10:14:54;9.50;9.50;7.50
69746;PMS7003;57018;50.278;19.134;2023-08-12T10:17:26;11.50;9.50;8.00
69746;PMS7003;57018;50.278;19.134;2023-08-12T10:19:57;11.00;9.00;8.00
69746;PMS7003;57018;50.278;19.134;2023-08-12T10:22:30;13.00;12.00;8.67
69746;PMS7003;57018;50.278;19.134;2023-08-12T10:25:01;9.50;9.50;6.50
69746;PMS7003;57018;50.278;19.134;2023-08-12T10:27:31;12.00;10.00;7.00
69746;PMS7003;57018;50.278;19.134;2023-08-12T10:30:03;7.00;7.00;4.50
69746;PMS7003;57018;50.278;19.134;2023-08-12T10:32:36;8.00;8.00;6.00
69746;PMS7003;57018;50.278;19.134;2023-08-12T10:35:08;8.50;8.50;7.00
69746;PMS7003;57018;50.278;19.134;2023-08-12T10:37:39;8.00;8.00;7.00
69746;PMS7003;57018;50.278;19.134;2023-08-12T10:40:20;9.50;9.50;7.50
69746;PMS7003;57018;50.278;19.134;2023-08-12T10:42:50;11.00;10.00;8.00
69746;PMS7003;57018;50.278;19.134;2023-08-12T10:45:20;9.00;9.00;6.67
69746;PMS7003;57018;50.278;19.134;2023-08-12T10:47:51;7.00;7.00;6.00
69746;PMS7003;57018;50.278;19.134;2023-08-12T10:50:37;8.33;8.33;6.33
69746;PMS7003;57018;50.278;19.134;2023-08-12T10:53:26;8.00;8.00;6.00
69746;PMS7003;57018;50.278;19.134;2023-08-12T10:55:58;8.00;7.50;5.50
69746;PMS7003;57018;50.278;19.134;2023-08-12T10:58:33;8.00;8.00;7.00
69746;PMS7003;57018;50.278;19.134;2023-08-12T11:01:16;9.00;9.00;6.00
69746;PMS7003;57018;50.278;19.134;2023-08-12T11:03:47;6.50;6.50;5.50
69746;PMS7003;57018;50.278;19.134;2023-08-12T11:06:18;6.50;6.50;5.00
69746;PMS7003;57018;50.278;19.134;2023-08-12T11:08:49;7.50;7.50;5.00
69746;PMS7003;57018;50.278;19.134;2023-08-12T11:11:21;5.00;5.00;5.00
69746;PMS7003;57018;50.278;19.134;2023-08-12T11:13:54;5.50;5.00;3.50
69746;PMS7003;57018;50.278;19.134;2023-08-12T11:16:34;4.50;4.00;3.50
69746;PMS7003;57018;50.278;19.134;2023-08-12T11:19:07;6.00;5.00;4.00
69746;PMS7003;57018;50.278;19.134;2023-08-12T11:21:37;7.00;6.00;5.00
69746;PMS7003;57018;50.278;19.134;2023-08-12T11:24:08;5.50;5.50;4.50
69746;PMS7003;57018;50.278;19.134;2023-08-12T11:26:39;7.00;7.00;5.00
69746;PMS7003;57018;50.278;19.134;2023-08-12T11:29:10;9.00;7.00;6.00
69746;PMS7003;57018;50.278;19.134;2023-08-12T11:31:41;9.00;7.00;6.00
69746;PMS7003;57018;50.278;19.134;2023-08-12T11:34:11;8.33;8.33;6.33
69746;PMS7003;57018;50.278;19.134;2023-08-12T11:36:41;6.50;6.00;4.50
69746;PMS7003;57018;50.278;19.134;2023-08-12T11:39:11;7.00;7.00;5.00
69746;PMS7003;57018;50.278;19.134;2023-08-12T11:41:42;6.50;6.50;5.50
69746;PMS7003;57018;50.278;19.134;2023-08-12T11:44:12;6.00;6.00;5.00
69746;PMS7003;57018;50.278;19.134;2023-08-12T11:46:44;6.00;6.00;4.00
69746;PMS7003;57018;50.278;19.134;2023-08-12T11:49:14;6.00;6.00;5.00
69746;PMS7003;57018;50.278;19.134;2023-08-12T11:51:46;6.00;6.00;4.00
69746;PMS7003;57018;50.278;19.134;2023-08-12T11:54:17;9.00;8.00;6.00
69746;PMS7003;57018;50.278;19.134;2023-08-12T11:56:48;6.00;5.00;5.00
69746;PMS7003;57018;50.278;19.134;2023-08-12T11:59:18;7.00;6.50;5.00
69746;PMS7003;57018;50.278;19.134;2023-08-12T12:01:50;7.00;7.00;5.00
69746;PMS7003;57018;50.278;19.134;2023-08-12T12:04:22;7.50;7.50;6.50
69746;PMS7003;57018;50.278;19.134;2023-08-12T12:06:52;5.50;5.50;4.50
69746;PMS7003;57018;50.278;19.134;2023-08-12T12:09:22;7.00;7.00;6.00
69746;PMS7003;57018;50.278;19.134;2023-08-12T12:11:53;6.00;6.00;5.00
69746;PMS7003;57018;50.278;19.134;2023-08-12T12:14:24;7.00;7.00;6.00
69746;PMS7003;57018;50.278;19.134;2023-08-12T12:16:54;4.50;4.50;4.00
69746;PMS7003;57018;50.278;19.134;2023-08-12T12:19:24;6.00;6.00;5.00
69746;PMS7003;57018;50.278;19.134;2023-08-12T12:21:55;8.50;8.50;6.50
69746;PMS7003;57018;50.278;19.134;2023-08-12T12:24:28;6.00;6.00;5.50
69746;PMS7003;57018;50.278;19.134;2023-08-12T12:26:58;6.00;6.00;5.00
69746;PMS7003;57018;50.278;19.134;2023-08-12T12:29:28;9.00;7.33;5.67
69746;PMS7003;57018;50.278;19.134;2023-08-12T12:31:58;7.00;7.00;6.00
69746;PMS7003;57018;50.278;19.134;2023-08-12T12:34:27;7.50;7.50;5.50
69746;PMS7003;57018;50.278;19.134;2023-08-12T12:36:58;5.50;5.50;4.00
69746;PMS7003;57018;50.278;19.134;2023-08-12T12:39:27;8.33;8.33;5.33
69746;PMS7003;57018;50.278;19.134;2023-08-12T12:41:58;8.00;8.00;5.00
69746;PMS7003;57018;50.278;19.134;2023-08-12T12:44:28;8.00;8.00;6.00
69746;PMS7003;57018;50.278;19.134;2023-08-12T12:46:58;11.50;11.50;8.00
69746;PMS7003;57018;50.278;19.134;2023-08-12T12:49:29;8.00;6.00;5.00
69746;PMS7003;57018;50.278;19.134;2023-08-12T12:51:58;10.00;9.00;6.00
69746;PMS7003;57018;50.278;19.134;2023-08-12T12:54:28;9.00;9.00;7.00
69746;PMS7003;57018;50.278;19.134;2023-08-12T12:56:58;10.00;8.00;7.00
69746;PMS7003;57018;50.278;19.134;2023-08-12T12:59:30;9.00;9.00;8.00
69746;PMS7003;57018;50.278;19.134;2023-08-12T13:02:00;8.00;8.00;7.50
69746;PMS7003;57018;50.278;19.134;2023-08-12T13:04:30;7.00;7.00;5.33
69746;PMS7003;57018;50.278;19.134;2023-08-12T13:07:00;8.00;8.00;6.00
69746;PMS7003;57018;50.278;19.134;2023-08-12T13:09:30;12.00;11.00;7.00
69746;PMS7003;57018;50.278;19.134;2023-08-12T13:12:00;9.00;9.00;8.00
69746;PMS7003;57018;50.278;19.134;2023-08-12T13:14:29;8.00;7.67;6.00
69746;PMS7003;57018;50.278;19.134;2023-08-12T13:16:59;11.50;11.00;8.00
69746;PMS7003;57018;50.278;19.134;2023-08-12T13:19:29;8.00;7.00;5.00
69746;PMS7003;57018;50.278;19.134;2023-08-12T13:21:59;8.00;8.00;7.00
69746;PMS7003;57018;50.278;19.134;2023-08-12T13:24:30;9.50;8.50;6.50
69746;PMS7003;57018;50.278;19.134;2023-08-12T13:26:59;10.00;9.00;7.00
69746;PMS7003;57018;50.278;19.134;2023-08-12T13:29:29;10.00;9.00;9.00
69746;PMS7003;57018;50.278;19.134;2023-08-12T13:31:59;10.00;9.00;7.00
69746;PMS7003;57018;50.278;19.134;2023-08-12T13:34:29;7.50;7.50;5.00
69746;PMS7003;57018;50.278;19.134;2023-08-12T13:36:59;8.50;8.50;7.00
69746;PMS7003;57018;50.278;19.134;2023-08-12T13:39:29;9.50;9.00;7.00
69746;PMS7003;57018;50.278;19.134;2023-08-12T13:41:58;11.00;11.00;9.00
69746;PMS7003;57018;50.278;19.134;2023-08-12T13:44:28;10.67;10.00;7.33
69746;PMS7003;57018;50.278;19.134;2023-08-12T13:46:58;8.00;8.00;5.67
69746;PMS7003;57018;50.278;19.134;2023-08-12T13:49:28;11.00;10.00;8.00
69746;PMS7003;57018;50.278;19.134;2023-08-12T13:51:58;11.00;11.00;8.00
69746;PMS7003;57018;50.278;19.134;2023-08-12T13:54:27;7.50;7.50;6.00
69746;PMS7003;57018;50.278;19.134;2023-08-12T13:56:59;11.50;10.00;7.00
69746;PMS7003;57018;50.278;19.134;2023-08-12T13:59:29;8.00;8.00;7.00
69746;PMS7003;57018;50.278;19.134;2023-08-12T14:01:58;9.00;9.00;7.00
69746;PMS7003;57018;50.278;19.134;2023-08-12T14:04:28;45.50;39.50;27.00
69746;PMS7003;57018;50.278;19.134;2023-08-12T14:06:58;16.00;16.00;10.00
69746;PMS7003;57018;50.278;19.134;2023-08-12T14:09:28;18.50;16.50;12.00
69746;PMS7003;57018;50.278;19.134;2023-08-12T14:11:58;15.33;13.67;10.33
69746;PMS7003;57018;50.278;19.134;2023-08-12T14:14:28;11.50;11.50;8.00
69746;PMS7003;57018;50.278;19.134;2023-08-12T14:16:59;7.00;7.00;6.00